sensor_id;sensor_type;location;lat;lon;timestamp;temperature;humidity
15113;DHT22;7657;50.140;7.076;2023-04-03T00:01:27;4.80;99.90
15113;DHT22;7657;50.140;7.076;2023-04-03T00:03:54;4.80;99.90
15113;DHT22;7657;50.140;7.076;2023-04-03T00:06:22;4.80;99.90
15113;DHT22;7657;50.140;7.076;2023-04-03T00:08:49;4.80;99.90
15113;DHT22;7657;50.140;7.076;2023-04-03T00:11:16;4.80;99.90
15113;DHT22;7657;50.140;7.076;2023-04-03T00:13:45;4.80;99.90
15113;DHT22;7657;50.140;7.076;2023-04-03T00:16:12;4.60;99.90
15113;DHT22;7657;50.140;7.076;2023-04-03T00:18:39;4.70;99.90
15113;DHT22;7657;50.140;7.076;2023-04-03T00:21:07;4.70;99.90
15113;DHT22;7657;50.140;7.076;2023-04-03T00:23:34;4.70;99.90
15113;DHT22;7657;50.140;7.076;2023-04-03T00:26:01;4.60;99.90
15113;DHT22;7657;50.140;7.076;2023-04-03T00:28:28;4.60;99.90
15113;DHT22;7657;50.140;7.076;2023-04-03T00:30:57;4.60;99.90
15113;DHT22;7657;50.140;7.076;2023-04-03T00:33:24;4.60;99.90
15113;DHT22;7657;50.140;7.076;2023-04-03T00:35:51;4.50;99.90
15113;DHT22;7657;50.140;7.076;2023-04-03T00:38:18;4.50;99.90
15113;DHT22;7657;50.140;7.076;2023-04-03T00:40:47;4.60;99.90
15113;DHT22;7657;50.140;7.076;2023-04-03T00:43:17;4.40;99.90
15113;DHT22;7657;50.140;7.076;2023-04-03T00:45:46;4.50;99.90
15113;DHT22;7657;50.140;7.076;2023-04-03T00:48:17;4.50;99.90
15113;DHT22;7657;50.140;7.076;2023-04-03T00:50:45;4.40;99.90
15113;DHT22;7657;50.140;7.076;2023-04-03T00:53:15;4.40;99.90
15113;DHT22;7657;50.140;7.076;2023-04-03T00:55:43;4.40;99.90
15113;DHT22;7657;50.140;7.076;2023-04-03T00:58:12;4.40;99.90
15113;DHT22;7657;50.140;7.076;2023-04-03T01:00:43;4.40;99.90
15113;DHT22;7657;50.140;7.076;2023-04-03T01:03:11;4.40;99.90
15113;DHT22;7657;50.140;7.076;2023-04-03T01:05:40;4.40;99.90
15113;DHT22;7657;50.140;7.076;2023-04-03T01:08:07;4.40;99.90
15113;DHT22;7657;50.140;7.076;2023-04-03T01:10:34;4.40;99.90
15113;DHT22;7657;50.140;7.076;2023-04-03T01:13:01;4.40;99.90
15113;DHT22;7657;50.140;7.076;2023-04-03T01:15:28;4.20;99.90
15113;DHT22;7657;50.140;7.076;2023-04-03T01:18:00;4.20;99.90
15113;DHT22;7657;50.140;7.076;2023-04-03T01:21:05;4.10;99.90
15113;DHT22;7657;50.140;7.076;2023-04-03T01:23:41;4.20;99.90
15113;DHT22;7657;50.140;7.076;2023-04-03T01:26:10;4.20;99.90
15113;DHT22;7657;50.140;7.076;2023-04-03T01:28:38;4.30;99.90
15113;DHT22;7657;50.140;7.076;2023-04-03T01:31:13;4.20;99.90
15113;DHT22;7657;50.140;7.076;2023-04-03T01:33:43;4.20;99.90
15113;DHT22;7657;50.140;7.076;2023-04-03T01:36:15;4.20;99.90
15113;DHT22;7657;50.140;7.076;2023-04-03T01:38:42;4.20;99.90
15113;DHT22;7657;50.140;7.076;2023-04-03T01:41:09;4.20;99.90
15113;DHT22;7657;50.140;7.076;2023-04-03T01:43:36;4.20;99.90
15113;DHT22;7657;50.140;7.076;2023-04-03T01:46:04;4.10;99.90
15113;DHT22;7657;50.140;7.076;2023-04-03T01:48:31;4.20;99.90
15113;DHT22;7657;50.140;7.076;2023-04-03T01:50:59;4.10;99.90
15113;DHT22;7657;50.140;7.076;2023-04-03T01:53:26;4.10;99.90
15113;DHT22;7657;50.140;7.076;2023-04-03T01:55:53;4.10;99.90
15113;DHT22;7657;50.140;7.076;2023-04-03T01:58:20;4.00;99.90
15113;DHT22;7657;50.140;7.076;2023-04-03T02:00:47;4.00;99.90
15113;DHT22;7657;50.140;7.076;2023-04-03T02:03:14;3.90;99.90
15113;DHT22;7657;50.140;7.076;2023-04-03T02:05:41;3.90;99.90
15113;DHT22;7657;50.140;7.076;2023-04-03T02:08:09;3.90;99.90
15113;DHT22;7657;50.140;7.076;2023-04-03T02:10:36;3.90;99.90
15113;DHT22;7657;50.140;7.076;2023-04-03T02:13:03;3.90;99.90
15113;DHT22;7657;50.140;7.076;2023-04-03T02:15:30;3.90;99.90
15113;DHT22;7657;50.140;7.076;2023-04-03T02:17:57;3.90;99.90
15113;DHT22;7657;50.140;7.076;2023-04-03T02:20:24;3.90;99.90
15113;DHT22;7657;50.140;7.076;2023-04-03T02:22:51;3.90;99.90
15113;DHT22;7657;50.140;7.076;2023-04-03T02:25:19;4.00;99.90
15113;DHT22;7657;50.140;7.076;2023-04-03T02:27:47;4.10;99.90
15113;DHT22;7657;50.140;7.076;2023-04-03T02:30:14;4.10;99.90
15113;DHT22;7657;50.140;7.076;2023-04-03T02:32:41;4.10;99.90
15113;DHT22;7657;50.140;7.076;2023-04-03T02:35:08;4.10;99.90
15113;DHT22;7657;50.140;7.076;2023-04-03T02:37:35;4.10;99.90
15113;DHT22;7657;50.140;7.076;2023-04-03T02:40:03;3.90;99.90
15113;DHT22;7657;50.140;7.076;2023-04-03T02:42:32;4.00;99.90
15113;DHT22;7657;50.140;7.076;2023-04-03T02:44:58;4.10;99.90
15113;DHT22;7657;50.140;7.076;2023-04-03T02:47:26;4.00;99.90
15113;DHT22;7657;50.140;7.076;2023-04-03T02:49:52;4.00;99.90
15113;DHT22;7657;50.140;7.076;2023-04-03T02:52:20;4.10;99.90
15113;DHT22;7657;50.140;7.076;2023-04-03T02:54:47;3.90;99.90
15113;DHT22;7657;50.140;7.076;2023-04-03T02:57:14;3.90;99.90
15113;DHT22;7657;50.140;7.076;2023-04-03T02:59:42;4.00;99.90
15113;DHT22;7657;50.140;7.076;2023-04-03T03:02:10;3.90;99.90
15113;DHT22;7657;50.140;7.076;2023-04-03T03:04:37;4.00;99.90
15113;DHT22;7657;50.140;7.076;2023-04-03T03:07:04;3.90;99.90
15113;DHT22;7657;50.140;7.076;2023-04-03T03:09:31;4.00;99.90
15113;DHT22;7657;50.140;7.076;2023-04-03T03:11:58;3.90;99.90
15113;DHT22;7657;50.140;7.076;2023-04-03T03:14:25;4.00;99.90
15113;DHT22;7657;50.140;7.076;2023-04-03T03:16:53;4.00;99.90
15113;DHT22;7657;50.140;7.076;2023-04-03T03:19:20;4.00;99.90
15113;DHT22;7657;50.140;7.076;2023-04-03T03:21:47;3.90;99.90
15113;DHT22;7657;50.140;7.076;2023-04-03T03:24:14;3.90;99.90
15113;DHT22;7657;50.140;7.076;2023-04-03T03:26:42;3.90;99.90
15113;DHT22;7657;50.140;7.076;2023-04-03T03:29:09;3.80;99.90
15113;DHT22;7657;50.140;7.076;2023-04-03T03:31:36;3.90;99.90
15113;DHT22;7657;50.140;7.076;2023-04-03T03:34:04;3.80;99.90
15113;DHT22;7657;50.140;7.076;2023-04-03T03:36:31;3.80;99.90
15113;DHT22;7657;50.140;7.076;2023-04-03T03:38:58;3.80;99.90
15113;DHT22;7657;50.140;7.076;2023-04-03T03:41:25;3.80;99.90
15113;DHT22;7657;50.140;7.076;2023-04-03T03:43:52;3.80;99.90
15113;DHT22;7657;50.140;7.076;2023-04-03T03:46:19;3.80;99.90
15113;DHT22;7657;50.140;7.076;2023-04-03T03:48:46;3.80;99.90
15113;DHT22;7657;50.140;7.076;2023-04-03T03:51:14;3.90;99.90
15113;DHT22;7657;50.140;7.076;2023-04-03T03:53:41;4.00;99.90
15113;DHT22;7657;50.140;7.076;2023-04-03T03:56:08;3.90;99.90
15113;DHT22;7657;50.140;7.076;2023-04-03T03:58:36;3.90;99.90
15113;DHT22;7657;50.140;7.076;2023-04-03T04:01:03;4.00;99.90
15113;DHT22;7657;50.140;7.076;2023-04-03T04:03:31;4.10;99.90
15113;DHT22;7657;50.140;7.076;2023-04-03T04:05:58;4.20;99.90
15113;DHT22;7657;50.140;7.076;2023-04-03T04:08:26;4.10;99.90
15113;DHT22;7657;50.140;7.076;2023-04-03T04:10:53;4.00;99.90
15113;DHT22;7657;50.140;7.076;2023-04-03T04:13:20;4.00;99.90
15113;DHT22;7657;50.140;7.076;2023-04-03T04:15:47;4.00;99.90
15113;DHT22;7657;50.140;7.076;2023-04-03T04:18:14;3.90;99.90
15113;DHT22;7657;50.140;7.076;2023-04-03T04:20:41;4.00;99.90
15113;DHT22;7657;50.140;7.076;2023-04-03T04:23:08;3.80;99.90
15113;DHT22;7657;50.140;7.076;2023-04-03T04:25:36;3.80;99.90
15113;DHT22;7657;50.140;7.076;2023-04-03T04:28:03;3.90;99.90
15113;DHT22;7657;50.140;7.076;2023-04-03T04:30:30;3.90;99.90
15113;DHT22;7657;50.140;7.076;2023-04-03T04:32:57;3.90;99.90
15113;DHT22;7657;50.140;7.076;2023-04-03T04:35:24;3.90;99.90
15113;DHT22;7657;50.140;7.076;2023-04-03T04:37:51;3.80;99.90
15113;DHT22;7657;50.140;7.076;2023-04-03T04:40:18;3.80;99.90
15113;DHT22;7657;50.140;7.076;2023-04-03T04:42:46;3.80;99.90
15113;DHT22;7657;50.140;7.076;2023-04-03T04:45:13;3.80;99.90
15113;DHT22;7657;50.140;7.076;2023-04-03T04:47:41;3.70;99.90
15113;DHT22;7657;50.140;7.076;2023-04-03T04:50:08;3.70;99.90
15113;DHT22;7657;50.140;7.076;2023-04-03T04:52:36;3.70;99.90
15113;DHT22;7657;50.140;7.076;2023-04-03T04:55:03;3.70;99.90
15113;DHT22;7657;50.140;7.076;2023-04-03T04:57:30;3.70;99.90
15113;DHT22;7657;50.140;7.076;2023-04-03T04:59:58;3.60;99.90
15113;DHT22;7657;50.140;7.076;2023-04-03T05:02:25;3.70;99.90
15113;DHT22;7657;50.140;7.076;2023-04-03T05:04:53;3.50;99.90
15113;DHT22;7657;50.140;7.076;2023-04-03T05:07:20;3.50;99.90
15113;DHT22;7657;50.140;7.076;2023-04-03T05:09:46;3.60;99.90
15113;DHT22;7657;50.140;7.076;2023-04-03T05:12:13;3.50;99.90
15113;DHT22;7657;50.140;7.076;2023-04-03T05:14:40;3.60;99.90
15113;DHT22;7657;50.140;7.076;2023-04-03T05:17:08;3.60;99.90
15113;DHT22;7657;50.140;7.076;2023-04-03T05:19:35;3.50;99.90
15113;DHT22;7657;50.140;7.076;2023-04-03T05:22:02;3.40;99.90
15113;DHT22;7657;50.140;7.076;2023-04-03T05:24:29;3.30;99.90
15113;DHT22;7657;50.140;7.076;2023-04-03T05:26:56;3.30;99.90
15113;DHT22;7657;50.140;7.076;2023-04-03T05:29:23;3.30;99.90
15113;DHT22;7657;50.140;7.076;2023-04-03T05:31:50;3.20;99.90
15113;DHT22;7657;50.140;7.076;2023-04-03T05:34:19;3.30;99.90
15113;DHT22;7657;50.140;7.076;2023-04-03T05:36:45;3.30;99.90
15113;DHT22;7657;50.140;7.076;2023-04-03T05:39:12;3.30;99.90
15113;DHT22;7657;50.140;7.076;2023-04-03T05:41:39;3.40;99.90
15113;DHT22;7657;50.140;7.076;2023-04-03T05:44:06;3.40;99.90
15113;DHT22;7657;50.140;7.076;2023-04-03T05:46:33;3.30;99.90
15113;DHT22;7657;50.140;7.076;2023-04-03T05:49:00;3.20;99.90
15113;DHT22;7657;50.140;7.076;2023-04-03T05:51:30;3.30;99.90
15113;DHT22;7657;50.140;7.076;2023-04-03T05:54:04;3.30;99.90
15113;DHT22;7657;50.140;7.076;2023-04-03T05:56:32;3.20;99.90
15113;DHT22;7657;50.140;7.076;2023-04-03T05:58:59;3.20;99.90
15113;DHT22;7657;50.140;7.076;2023-04-03T06:01:26;3.20;99.90
15113;DHT22;7657;50.140;7.076;2023-04-03T06:03:53;3.10;99.90
15113;DHT22;7657;50.140;7.076;2023-04-03T06:06:21;3.10;99.90
15113;DHT22;7657;50.140;7.076;2023-04-03T06:08:50;3.00;99.90
15113;DHT22;7657;50.140;7.076;2023-04-03T06:11:17;3.00;99.90
15113;DHT22;7657;50.140;7.076;2023-04-03T06:13:44;3.00;99.90
15113;DHT22;7657;50.140;7.076;2023-04-03T06:16:12;3.10;99.90
15113;DHT22;7657;50.140;7.076;2023-04-03T06:18:40;3.10;99.90
15113;DHT22;7657;50.140;7.076;2023-04-03T06:21:08;3.10;99.90
15113;DHT22;7657;50.140;7.076;2023-04-03T06:23:34;3.10;99.90
15113;DHT22;7657;50.140;7.076;2023-04-03T06:26:03;3.00;99.90
15113;DHT22;7657;50.140;7.076;2023-04-03T06:28:31;3.10;99.90
15113;DHT22;7657;50.140;7.076;2023-04-03T06:30:57;3.10;99.90
15113;DHT22;7657;50.140;7.076;2023-04-03T06:33:24;3.00;99.90
15113;DHT22;7657;50.140;7.076;2023-04-03T06:35:56;3.00;99.90
15113;DHT22;7657;50.140;7.076;2023-04-03T06:38:23;3.10;99.90
15113;DHT22;7657;50.140;7.076;2023-04-03T06:40:50;3.20;99.90
15113;DHT22;7657;50.140;7.076;2023-04-03T06:43:19;3.10;99.90
15113;DHT22;7657;50.140;7.076;2023-04-03T06:45:47;3.20;99.90
15113;DHT22;7657;50.140;7.076;2023-04-03T06:48:14;3.10;99.90
15113;DHT22;7657;50.140;7.076;2023-04-03T06:50:41;3.20;99.90
15113;DHT22;7657;50.140;7.076;2023-04-03T06:53:08;3.30;99.90
15113;DHT22;7657;50.140;7.076;2023-04-03T06:55:35;3.20;99.90
15113;DHT22;7657;50.140;7.076;2023-04-03T06:58:03;3.20;99.90
15113;DHT22;7657;50.140;7.076;2023-04-03T07:00:31;3.30;99.90
15113;DHT22;7657;50.140;7.076;2023-04-03T07:02:58;3.20;99.90
15113;DHT22;7657;50.140;7.076;2023-04-03T07:05:25;3.30;99.90
15113;DHT22;7657;50.140;7.076;2023-04-03T07:07:53;3.30;99.90
15113;DHT22;7657;50.140;7.076;2023-04-03T07:10:20;3.20;99.90
15113;DHT22;7657;50.140;7.076;2023-04-03T07:12:47;3.30;99.90
15113;DHT22;7657;50.140;7.076;2023-04-03T07:15:14;3.50;99.90
15113;DHT22;7657;50.140;7.076;2023-04-03T07:17:42;3.60;99.90
15113;DHT22;7657;50.140;7.076;2023-04-03T07:20:10;3.60;99.90
15113;DHT22;7657;50.140;7.076;2023-04-03T07:22:37;3.70;99.90
15113;DHT22;7657;50.140;7.076;2023-04-03T07:25:05;3.90;99.90
15113;DHT22;7657;50.140;7.076;2023-04-03T07:27:33;3.80;99.90
15113;DHT22;7657;50.140;7.076;2023-04-03T07:30:00;3.70;99.90
15113;DHT22;7657;50.140;7.076;2023-04-03T07:32:27;3.60;99.90
15113;DHT22;7657;50.140;7.076;2023-04-03T07:34:55;3.60;99.90
15113;DHT22;7657;50.140;7.076;2023-04-03T07:37:22;3.50;99.90
15113;DHT22;7657;50.140;7.076;2023-04-03T07:39:49;3.60;99.90
15113;DHT22;7657;50.140;7.076;2023-04-03T07:42:16;3.60;99.90
15113;DHT22;7657;50.140;7.076;2023-04-03T07:44:43;3.80;99.90
15113;DHT22;7657;50.140;7.076;2023-04-03T07:47:11;3.80;99.90
15113;DHT22;7657;50.140;7.076;2023-04-03T07:49:39;3.70;99.90
15113;DHT22;7657;50.140;7.076;2023-04-03T07:52:08;3.70;99.90
15113;DHT22;7657;50.140;7.076;2023-04-03T07:54:35;3.80;99.90
15113;DHT22;7657;50.140;7.076;2023-04-03T07:57:02;3.90;99.90
15113;DHT22;7657;50.140;7.076;2023-04-03T07:59:30;3.90;99.90
15113;DHT22;7657;50.140;7.076;2023-04-03T08:01:57;4.00;99.90
15113;DHT22;7657;50.140;7.076;2023-04-03T08:04:24;4.00;99.90
15113;DHT22;7657;50.140;7.076;2023-04-03T08:06:51;4.10;99.90
15113;DHT22;7657;50.140;7.076;2023-04-03T08:09:20;4.00;99.90
15113;DHT22;7657;50.140;7.076;2023-04-03T08:11:46;4.00;99.90
15113;DHT22;7657;50.140;7.076;2023-04-03T08:14:13;4.10;99.90
15113;DHT22;7657;50.140;7.076;2023-04-03T08:16:44;4.10;99.90
15113;DHT22;7657;50.140;7.076;2023-04-03T08:19:11;4.00;99.90
15113;DHT22;7657;50.140;7.076;2023-04-03T08:21:39;4.00;99.90
15113;DHT22;7657;50.140;7.076;2023-04-03T08:24:07;4.00;99.90
15113;DHT22;7657;50.140;7.076;2023-04-03T08:26:36;4.00;99.90
15113;DHT22;7657;50.140;7.076;2023-04-03T08:29:03;4.10;99.90
15113;DHT22;7657;50.140;7.076;2023-04-03T08:31:30;4.00;99.90
15113;DHT22;7657;50.140;7.076;2023-04-03T08:33:58;4.10;99.90
15113;DHT22;7657;50.140;7.076;2023-04-03T08:36:26;4.00;99.90
15113;DHT22;7657;50.140;7.076;2023-04-03T08:38:54;4.10;99.90
15113;DHT22;7657;50.140;7.076;2023-04-03T08:41:28;4.20;99.90
15113;DHT22;7657;50.140;7.076;2023-04-03T08:44:02;4.20;99.90
15113;DHT22;7657;50.140;7.076;2023-04-03T08:46:40;4.10;99.90
15113;DHT22;7657;50.140;7.076;2023-04-03T08:49:13;4.20;99.90
15113;DHT22;7657;50.140;7.076;2023-04-03T08:51:46;4.10;99.90
15113;DHT22;7657;50.140;7.076;2023-04-03T08:54:24;4.10;99.90
15113;DHT22;7657;50.140;7.076;2023-04-03T08:56:52;4.10;99.90
15113;DHT22;7657;50.140;7.076;2023-04-03T08:59:26;4.20;99.90
15113;DHT22;7657;50.140;7.076;2023-04-03T09:01:54;4.10;99.90
15113;DHT22;7657;50.140;7.076;2023-04-03T09:04:22;4.10;99.90
15113;DHT22;7657;50.140;7.076;2023-04-03T09:06:57;4.10;99.90
15113;DHT22;7657;50.140;7.076;2023-04-03T09:09:32;4.10;99.90
15113;DHT22;7657;50.140;7.076;2023-04-03T09:12:05;4.20;99.90
15113;DHT22;7657;50.140;7.076;2023-04-03T09:14:40;4.30;99.90
15113;DHT22;7657;50.140;7.076;2023-04-03T09:17:14;4.30;99.90
15113;DHT22;7657;50.140;7.076;2023-04-03T09:19:51;4.60;99.90
15113;DHT22;7657;50.140;7.076;2023-04-03T09:22:24;4.70;99.90
15113;DHT22;7657;50.140;7.076;2023-04-03T09:24:55;4.80;99.90
15113;DHT22;7657;50.140;7.076;2023-04-03T09:27:24;4.70;99.90
15113;DHT22;7657;50.140;7.076;2023-04-03T09:29:55;4.70;99.90
15113;DHT22;7657;50.140;7.076;2023-04-03T09:32:26;4.70;99.90
15113;DHT22;7657;50.140;7.076;2023-04-03T09:34:55;4.70;99.90
15113;DHT22;7657;50.140;7.076;2023-04-03T09:37:39;4.80;99.90
15113;DHT22;7657;50.140;7.076;2023-04-03T09:40:32;4.80;99.90
15113;DHT22;7657;50.140;7.076;2023-04-03T09:43:02;4.80;99.90
15113;DHT22;7657;50.140;7.076;2023-04-03T09:45:32;4.80;99.90
15113;DHT22;7657;50.140;7.076;2023-04-03T09:48:07;4.90;99.90
15113;DHT22;7657;50.140;7.076;2023-04-03T09:50:36;4.80;99.90
15113;DHT22;7657;50.140;7.076;2023-04-03T09:53:07;4.80;99.90
15113;DHT22;7657;50.140;7.076;2023-04-03T09:55:51;4.80;99.90
15113;DHT22;7657;50.140;7.076;2023-04-03T09:58:25;4.80;99.90
15113;DHT22;7657;50.140;7.076;2023-04-03T10:00:58;4.80;99.90
15113;DHT22;7657;50.140;7.076;2023-04-03T10:03:29;4.80;99.90
15113;DHT22;7657;50.140;7.076;2023-04-03T10:05:57;4.80;99.90
15113;DHT22;7657;50.140;7.076;2023-04-03T10:08:27;4.90;99.90
15113;DHT22;7657;50.140;7.076;2023-04-03T10:11:10;4.90;99.90
15113;DHT22;7657;50.140;7.076;2023-04-03T10:13:50;4.90;99.90
15113;DHT22;7657;50.140;7.076;2023-04-03T10:16:21;4.90;99.90
15113;DHT22;7657;50.140;7.076;2023-04-03T10:18:58;5.10;99.90
15113;DHT22;7657;50.140;7.076;2023-04-03T10:21:35;5.20;99.90
15113;DHT22;7657;50.140;7.076;2023-04-03T10:24:10;5.10;99.90
15113;DHT22;7657;50.140;7.076;2023-04-03T10:26:45;5.10;99.90
15113;DHT22;7657;50.140;7.076;2023-04-03T10:29:21;5.00;99.90
15113;DHT22;7657;50.140;7.076;2023-04-03T10:31:58;5.10;99.90
15113;DHT22;7657;50.140;7.076;2023-04-03T10:34:29;5.20;99.90
15113;DHT22;7657;50.140;7.076;2023-04-03T10:37:04;5.20;99.90
15113;DHT22;7657;50.140;7.076;2023-04-03T10:39:36;5.40;99.90
15113;DHT22;7657;50.140;7.076;2023-04-03T10:42:12;5.40;99.90
15113;DHT22;7657;50.140;7.076;2023-04-03T10:44:47;5.50;99.90
15113;DHT22;7657;50.140;7.076;2023-04-03T10:47:21;5.60;99.90
15113;DHT22;7657;50.140;7.076;2023-04-03T10:49:54;5.70;99.90
15113;DHT22;7657;50.140;7.076;2023-04-03T10:52:29;5.60;99.90
15113;DHT22;7657;50.140;7.076;2023-04-03T10:55:09;5.60;99.90
15113;DHT22;7657;50.140;7.076;2023-04-03T10:57:40;5.60;99.90
15113;DHT22;7657;50.140;7.076;2023-04-03T11:00:15;5.60;99.90
15113;DHT22;7657;50.140;7.076;2023-04-03T11:02:49;5.60;99.90
15113;DHT22;7657;50.140;7.076;2023-04-03T11:05:25;5.60;99.90
15113;DHT22;7657;50.140;7.076;2023-04-03T11:07:56;5.40;99.90
15113;DHT22;7657;50.140;7.076;2023-04-03T11:10:30;5.50;99.90
15113;DHT22;7657;50.140;7.076;2023-04-03T11:13:08;5.60;99.90
15113;DHT22;7657;50.140;7.076;2023-04-03T11:15:37;5.70;99.90
15113;DHT22;7657;50.140;7.076;2023-04-03T11:18:10;5.60;99.90
15113;DHT22;7657;50.140;7.076;2023-04-03T11:20:39;5.60;99.90
15113;DHT22;7657;50.140;7.076;2023-04-03T11:23:16;5.60;99.90
15113;DHT22;7657;50.140;7.076;2023-04-03T11:25:47;5.60;99.90
15113;DHT22;7657;50.140;7.076;2023-04-03T11:28:15;5.80;99.90
15113;DHT22;7657;50.140;7.076;2023-04-03T11:30:46;6.00;99.90
15113;DHT22;7657;50.140;7.076;2023-04-03T11:33:28;6.10;99.90
15113;DHT22;7657;50.140;7.076;2023-04-03T11:36:02;5.90;99.90
15113;DHT22;7657;50.140;7.076;2023-04-03T11:38:35;6.00;99.90
15113;DHT22;7657;50.140;7.076;2023-04-03T11:41:06;5.90;99.90
15113;DHT22;7657;50.140;7.076;2023-04-03T11:43:41;5.90;99.90
15113;DHT22;7657;50.140;7.076;2023-04-03T11:46:08;5.90;99.90
15113;DHT22;7657;50.140;7.076;2023-04-03T11:48:45;6.10;99.90
15113;DHT22;7657;50.140;7.076;2023-04-03T11:51:40;6.20;99.90
15113;DHT22;7657;50.140;7.076;2023-04-03T11:57:49;6.20;99.90
15113;DHT22;7657;50.140;7.076;2023-04-03T12:00:52;6.20;99.90
15113;DHT22;7657;50.140;7.076;2023-04-03T12:04:10;6.30;99.90
15113;DHT22;7657;50.140;7.076;2023-04-03T12:10:02;6.40;99.90
15113;DHT22;7657;50.140;7.076;2023-04-03T12:12:40;6.50;99.90
15113;DHT22;7657;50.140;7.076;2023-04-03T12:15:24;6.70;99.90
15113;DHT22;7657;50.140;7.076;2023-04-03T12:17:51;6.80;99.90
15113;DHT22;7657;50.140;7.076;2023-04-03T12:20:57;6.80;99.90
15113;DHT22;7657;50.140;7.076;2023-04-03T12:23:30;6.80;99.90
15113;DHT22;7657;50.140;7.076;2023-04-03T12:26:19;6.70;99.90
15113;DHT22;7657;50.140;7.076;2023-04-03T12:28:48;6.80;99.90
15113;DHT22;7657;50.140;7.076;2023-04-03T12:31:16;6.80;99.90
15113;DHT22;7657;50.140;7.076;2023-04-03T12:34:16;6.60;99.90
15113;DHT22;7657;50.140;7.076;2023-04-03T12:36:52;6.50;99.90
15113;DHT22;7657;50.140;7.076;2023-04-03T12:39:33;6.50;99.90
15113;DHT22;7657;50.140;7.076;2023-04-03T12:42:14;6.70;99.90
15113;DHT22;7657;50.140;7.076;2023-04-03T12:44:50;6.80;99.90
15113;DHT22;7657;50.140;7.076;2023-04-03T12:47:28;6.70;99.90
15113;DHT22;7657;50.140;7.076;2023-04-03T12:49:59;6.50;99.90
15113;DHT22;7657;50.140;7.076;2023-04-03T12:52:35;6.50;99.90
15113;DHT22;7657;50.140;7.076;2023-04-03T12:55:11;6.50;99.90
15113;DHT22;7657;50.140;7.076;2023-04-03T12:57:40;6.50;99.90
15113;DHT22;7657;50.140;7.076;2023-04-03T13:00:29;6.50;99.90
15113;DHT22;7657;50.140;7.076;2023-04-03T13:02:58;6.60;99.90
15113;DHT22;7657;50.140;7.076;2023-04-03T13:05:25;6.80;99.90
15113;DHT22;7657;50.140;7.076;2023-04-03T13:07:58;6.60;99.90
15113;DHT22;7657;50.140;7.076;2023-04-03T13:10:25;6.80;99.90
15113;DHT22;7657;50.140;7.076;2023-04-03T13:12:55;6.70;99.90
15113;DHT22;7657;50.140;7.076;2023-04-03T13:15:24;6.80;99.90
15113;DHT22;7657;50.140;7.076;2023-04-03T13:17:52;6.50;99.90
15113;DHT22;7657;50.140;7.076;2023-04-03T13:20:23;6.50;99.90
15113;DHT22;7657;50.140;7.076;2023-04-03T13:22:56;6.60;99.90
15113;DHT22;7657;50.140;7.076;2023-04-03T13:25:27;6.80;99.90
15113;DHT22;7657;50.140;7.076;2023-04-03T13:27:55;7.00;99.90
15113;DHT22;7657;50.140;7.076;2023-04-03T13:30:28;7.20;99.90
15113;DHT22;7657;50.140;7.076;2023-04-03T13:32:57;7.50;99.90
15113;DHT22;7657;50.140;7.076;2023-04-03T13:35:27;7.50;99.90
15113;DHT22;7657;50.140;7.076;2023-04-03T13:37:56;7.80;99.90
15113;DHT22;7657;50.140;7.076;2023-04-03T13:40:24;8.10;99.90
15113;DHT22;7657;50.140;7.076;2023-04-03T13:43:03;8.60;99.90
15113;DHT22;7657;50.140;7.076;2023-04-03T13:45:32;8.70;99.90
15113;DHT22;7657;50.140;7.076;2023-04-03T13:48:09;8.50;99.90
15113;DHT22;7657;50.140;7.076;2023-04-03T13:50:55;8.70;99.90
15113;DHT22;7657;50.140;7.076;2023-04-03T13:53:25;9.30;99.90
15113;DHT22;7657;50.140;7.076;2023-04-03T13:55:57;9.70;99.90
15113;DHT22;7657;50.140;7.076;2023-04-03T13:58:25;10.00;99.90
15113;DHT22;7657;50.140;7.076;2023-04-03T14:00:54;9.80;99.90
15113;DHT22;7657;50.140;7.076;2023-04-03T14:03:24;10.00;99.90
15113;DHT22;7657;50.140;7.076;2023-04-03T14:05:52;9.70;99.90
15113;DHT22;7657;50.140;7.076;2023-04-03T14:08:20;9.80;99.90
15113;DHT22;7657;50.140;7.076;2023-04-03T14:10:49;9.70;99.90
15113;DHT22;7657;50.140;7.076;2023-04-03T14:13:18;9.90;99.90
15113;DHT22;7657;50.140;7.076;2023-04-03T14:15:46;10.20;99.90
15113;DHT22;7657;50.140;7.076;2023-04-03T14:18:16;10.10;99.90
15113;DHT22;7657;50.140;7.076;2023-04-03T14:20:44;10.20;99.90
15113;DHT22;7657;50.140;7.076;2023-04-03T14:23:11;10.20;99.90
15113;DHT22;7657;50.140;7.076;2023-04-03T14:25:39;10.20;99.90
15113;DHT22;7657;50.140;7.076;2023-04-03T14:28:16;10.30;99.90
15113;DHT22;7657;50.140;7.076;2023-04-03T14:30:44;10.50;99.90
15113;DHT22;7657;50.140;7.076;2023-04-03T14:33:13;10.70;99.90
15113;DHT22;7657;50.140;7.076;2023-04-03T14:35:41;10.50;98.70
15113;DHT22;7657;50.140;7.076;2023-04-03T14:38:22;10.70;99.70
15113;DHT22;7657;50.140;7.076;2023-04-03T14:40:50;11.00;99.70
15113;DHT22;7657;50.140;7.076;2023-04-03T14:43:18;10.70;98.40
15113;DHT22;7657;50.140;7.076;2023-04-03T14:45:46;10.70;97.30
15113;DHT22;7657;50.140;7.076;2023-04-03T14:48:18;10.60;96.60
15113;DHT22;7657;50.140;7.076;2023-04-03T14:50:46;10.70;96.70
15113;DHT22;7657;50.140;7.076;2023-04-03T14:53:13;11.10;95.80
15113;DHT22;7657;50.140;7.076;2023-04-03T14:55:40;11.10;95.90
15113;DHT22;7657;50.140;7.076;2023-04-03T14:58:11;11.30;95.30
15113;DHT22;7657;50.140;7.076;2023-04-03T15:00:40;12.10;97.00
15113;DHT22;7657;50.140;7.076;2023-04-03T15:03:14;12.00;96.30
15113;DHT22;7657;50.140;7.076;2023-04-03T15:05:42;12.10;92.20
15113;DHT22;7657;50.140;7.076;2023-04-03T15:08:18;11.80;91.80
15113;DHT22;7657;50.140;7.076;2023-04-03T15:10:46;12.10;91.20
15113;DHT22;7657;50.140;7.076;2023-04-03T15:13:13;12.40;92.40
15113;DHT22;7657;50.140;7.076;2023-04-03T15:15:42;12.90;92.60
15113;DHT22;7657;50.140;7.076;2023-04-03T15:18:14;13.10;92.70
15113;DHT22;7657;50.140;7.076;2023-04-03T15:20:42;13.20;91.40
15113;DHT22;7657;50.140;7.076;2023-04-03T15:23:10;12.90;91.40
15113;DHT22;7657;50.140;7.076;2023-04-03T15:25:38;12.90;91.40
15113;DHT22;7657;50.140;7.076;2023-04-03T15:28:05;13.40;92.20
15113;DHT22;7657;50.140;7.076;2023-04-03T15:30:33;13.60;91.50
15113;DHT22;7657;50.140;7.076;2023-04-03T15:33:04;13.90;91.40
15113;DHT22;7657;50.140;7.076;2023-04-03T15:35:31;14.30;89.10
15113;DHT22;7657;50.140;7.076;2023-04-03T15:37:58;14.30;88.30
15113;DHT22;7657;50.140;7.076;2023-04-03T15:40:25;14.50;85.80
15113;DHT22;7657;50.140;7.076;2023-04-03T15:42:52;14.20;84.20
15113;DHT22;7657;50.140;7.076;2023-04-03T15:45:19;13.60;83.70
15113;DHT22;7657;50.140;7.076;2023-04-03T15:47:46;13.60;86.00
15113;DHT22;7657;50.140;7.076;2023-04-03T15:50:15;14.00;85.70
15113;DHT22;7657;50.140;7.076;2023-04-03T15:52:42;14.50;84.00
15113;DHT22;7657;50.140;7.076;2023-04-03T15:55:09;15.30;83.50
15113;DHT22;7657;50.140;7.076;2023-04-03T15:57:36;15.40;78.20
15113;DHT22;7657;50.140;7.076;2023-04-03T16:00:04;15.50;76.20
15113;DHT22;7657;50.140;7.076;2023-04-03T16:02:32;14.60;77.80
15113;DHT22;7657;50.140;7.076;2023-04-03T16:05:00;15.00;77.50
15113;DHT22;7657;50.140;7.076;2023-04-03T16:07:28;14.90;75.40
15113;DHT22;7657;50.140;7.076;2023-04-03T16:09:55;15.00;75.10
15113;DHT22;7657;50.140;7.076;2023-04-03T16:12:22;15.50;73.60
15113;DHT22;7657;50.140;7.076;2023-04-03T16:14:49;15.00;73.90
15113;DHT22;7657;50.140;7.076;2023-04-03T16:17:17;15.10;70.20
15113;DHT22;7657;50.140;7.076;2023-04-03T16:19:44;15.40;69.60
15113;DHT22;7657;50.140;7.076;2023-04-03T16:22:11;14.40;69.50
15113;DHT22;7657;50.140;7.076;2023-04-03T16:24:39;14.30;69.80